Sang, Michigan
Current Conditions -  °F | °C
As of 1:55 PM on Thursday 18 Dec 2014 (Local Time) from KMTC Reporting Station
Overcast Overcast  
Wind Chill: 25°   Ceiling: 1600
Heat Index: 32°   Visibility: 7mi
Dew Point: 31°   Wind: 7mph
Humidity: 99%   Direction: NA
Pressure: 30.13"   Gusts: NA
Location:  42.5826°N, 82.8345°W
Report Text: KMTC 181855Z VRB06KT 7SM BKN016 OVC027 M00/M00 A3013 RMK SLP216 T10021003
Loading
Personal Weather Stations






























Interactive Weather Map New forecast layout! Learn more

10-Day Weather Forecast

Advertisements
Track Severe Weather on mobile